sensor_id;sensor_type;location;lat;lon;timestamp;P1;durP1;ratioP1;P2;durP2;ratioP2
31306;SDS011;17935;51.120;13.132;2023-06-14T00:00:39;6.88;;;4.85;;
31306;SDS011;17935;51.120;13.132;2023-06-14T00:03:09;6.03;;;3.90;;
31306;SDS011;17935;51.120;13.132;2023-06-14T00:05:36;6.07;;;4.40;;
31306;SDS011;17935;51.120;13.132;2023-06-14T00:08:06;7.68;;;4.35;;
31306;SDS011;17935;51.120;13.132;2023-06-14T00:10:33;5.57;;;4.50;;
31306;SDS011;17935;51.120;13.132;2023-06-14T00:13:00;7.20;;;4.05;;
31306;SDS011;17935;51.120;13.132;2023-06-14T00:15:26;10.52;;;4.60;;
31306;SDS011;17935;51.120;13.132;2023-06-14T00:17:52;7.85;;;4.20;;
31306;SDS011;17935;51.120;13.132;2023-06-14T00:20:19;13.15;;;4.70;;
31306;SDS011;17935;51.120;13.132;2023-06-14T00:22:45;6.00;;;4.35;;
31306;SDS011;17935;51.120;13.132;2023-06-14T00:25:13;6.50;;;4.18;;
31306;SDS011;17935;51.120;13.132;2023-06-14T00:27:38;6.72;;;4.60;;
31306;SDS011;17935;51.120;13.132;2023-06-14T00:30:04;9.40;;;4.45;;
31306;SDS011;17935;51.120;13.132;2023-06-14T00:32:30;5.85;;;4.30;;
31306;SDS011;17935;51.120;13.132;2023-06-14T00:34:56;9.40;;;4.82;;
31306;SDS011;17935;51.120;13.132;2023-06-14T00:37:22;6.20;;;4.38;;
31306;SDS011;17935;51.120;13.132;2023-06-14T00:39:48;6.60;;;4.25;;
31306;SDS011;17935;51.120;13.132;2023-06-14T00:42:24;8.10;;;4.07;;
31306;SDS011;17935;51.120;13.132;2023-06-14T00:44:50;6.35;;;4.50;;
31306;SDS011;17935;51.120;13.132;2023-06-14T00:47:16;5.50;;;3.90;;
31306;SDS011;17935;51.120;13.132;2023-06-14T00:49:42;5.95;;;3.78;;
31306;SDS011;17935;51.120;13.132;2023-06-14T00:52:08;5.28;;;4.15;;
31306;SDS011;17935;51.120;13.132;2023-06-14T00:54:37;8.73;;;4.15;;
31306;SDS011;17935;51.120;13.132;2023-06-14T00:57:03;15.63;;;4.38;;
31306;SDS011;17935;51.120;13.132;2023-06-14T00:59:29;10.68;;;4.20;;
31306;SDS011;17935;51.120;13.132;2023-06-14T01:01:55;7.45;;;4.03;;
31306;SDS011;17935;51.120;13.132;2023-06-14T01:04:21;6.97;;;4.53;;
31306;SDS011;17935;51.120;13.132;2023-06-14T01:12:04;6.15;;;4.88;;
31306;SDS011;17935;51.120;13.132;2023-06-14T01:14:33;6.07;;;4.28;;
31306;SDS011;17935;51.120;13.132;2023-06-14T01:17:00;5.75;;;4.75;;
31306;SDS011;17935;51.120;13.132;2023-06-14T01:19:27;6.40;;;4.30;;
31306;SDS011;17935;51.120;13.132;2023-06-14T01:21:54;4.97;;;4.05;;
31306;SDS011;17935;51.120;13.132;2023-06-14T01:24:20;7.50;;;4.10;;
31306;SDS011;17935;51.120;13.132;2023-06-14T01:26:50;5.93;;;4.50;;
31306;SDS011;17935;51.120;13.132;2023-06-14T01:29:20;6.25;;;3.95;;
31306;SDS011;17935;51.120;13.132;2023-06-14T01:31:46;7.55;;;4.18;;
31306;SDS011;17935;51.120;13.132;2023-06-14T01:34:12;7.95;;;4.35;;
31306;SDS011;17935;51.120;13.132;2023-06-14T01:36:39;9.90;;;4.53;;
31306;SDS011;17935;51.120;13.132;2023-06-14T01:39:06;7.25;;;4.35;;
31306;SDS011;17935;51.120;13.132;2023-06-14T01:41:33;9.65;;;4.68;;
31306;SDS011;17935;51.120;13.132;2023-06-14T01:43:59;5.40;;;4.20;;
31306;SDS011;17935;51.120;13.132;2023-06-14T01:46:26;5.85;;;4.10;;
31306;SDS011;17935;51.120;13.132;2023-06-14T01:48:52;5.95;;;4.07;;
31306;SDS011;17935;51.120;13.132;2023-06-14T01:51:18;6.03;;;4.07;;
31306;SDS011;17935;51.120;13.132;2023-06-14T01:53:45;5.05;;;4.35;;
31306;SDS011;17935;51.120;13.132;2023-06-14T01:56:11;5.43;;;4.43;;
31306;SDS011;17935;51.120;13.132;2023-06-14T01:58:37;17.40;;;4.63;;
31306;SDS011;17935;51.120;13.132;2023-06-14T02:01:04;7.75;;;4.72;;
31306;SDS011;17935;51.120;13.132;2023-06-14T02:03:30;5.35;;;4.68;;
31306;SDS011;17935;51.120;13.132;2023-06-14T02:05:56;15.05;;;4.55;;
31306;SDS011;17935;51.120;13.132;2023-06-14T02:08:22;5.18;;;4.63;;
31306;SDS011;17935;51.120;13.132;2023-06-14T02:10:48;8.77;;;5.28;;
31306;SDS011;17935;51.120;13.132;2023-06-14T02:13:14;7.32;;;5.18;;
31306;SDS011;17935;51.120;13.132;2023-06-14T02:15:40;15.40;;;5.90;;
31306;SDS011;17935;51.120;13.132;2023-06-14T02:18:09;6.32;;;5.07;;
31306;SDS011;17935;51.120;13.132;2023-06-14T02:20:36;7.20;;;5.50;;
31306;SDS011;17935;51.120;13.132;2023-06-14T02:23:02;8.40;;;4.90;;
31306;SDS011;17935;51.120;13.132;2023-06-14T02:25:28;9.27;;;5.40;;
31306;SDS011;17935;51.120;13.132;2023-06-14T02:27:54;11.00;;;5.35;;
31306;SDS011;17935;51.120;13.132;2023-06-14T02:30:20;8.90;;;5.75;;
31306;SDS011;17935;51.120;13.132;2023-06-14T02:32:46;6.80;;;5.35;;
31306;SDS011;17935;51.120;13.132;2023-06-14T02:35:13;8.55;;;5.80;;
31306;SDS011;17935;51.120;13.132;2023-06-14T02:37:39;5.75;;;5.15;;
31306;SDS011;17935;51.120;13.132;2023-06-14T02:40:06;6.88;;;5.55;;
31306;SDS011;17935;51.120;13.132;2023-06-14T02:42:33;7.82;;;5.93;;
31306;SDS011;17935;51.120;13.132;2023-06-14T02:44:59;6.45;;;5.57;;
31306;SDS011;17935;51.120;13.132;2023-06-14T02:47:27;5.45;;;4.90;;
31306;SDS011;17935;51.120;13.132;2023-06-14T02:49:53;7.30;;;5.90;;
31306;SDS011;17935;51.120;13.132;2023-06-14T02:52:19;6.85;;;6.00;;
31306;SDS011;17935;51.120;13.132;2023-06-14T02:54:45;8.63;;;5.95;;
31306;SDS011;17935;51.120;13.132;2023-06-14T02:57:12;10.55;;;5.65;;
31306;SDS011;17935;51.120;13.132;2023-06-14T02:59:38;9.13;;;5.95;;
31306;SDS011;17935;51.120;13.132;2023-06-14T03:02:04;7.40;;;6.22;;
31306;SDS011;17935;51.120;13.132;2023-06-14T03:04:30;7.78;;;5.88;;
31306;SDS011;17935;51.120;13.132;2023-06-14T03:07:02;10.68;;;6.38;;
31306;SDS011;17935;51.120;13.132;2023-06-14T03:09:33;9.55;;;5.78;;
31306;SDS011;17935;51.120;13.132;2023-06-14T03:12:00;12.25;;;5.85;;
31306;SDS011;17935;51.120;13.132;2023-06-14T03:14:26;7.78;;;5.85;;
31306;SDS011;17935;51.120;13.132;2023-06-14T03:16:51;7.45;;;6.55;;
31306;SDS011;17935;51.120;13.132;2023-06-14T03:19:21;9.55;;;6.15;;
31306;SDS011;17935;51.120;13.132;2023-06-14T03:21:47;8.70;;;6.47;;
31306;SDS011;17935;51.120;13.132;2023-06-14T03:24:13;14.85;;;6.20;;
31306;SDS011;17935;51.120;13.132;2023-06-14T03:26:41;8.90;;;6.70;;
31306;SDS011;17935;51.120;13.132;2023-06-14T03:29:07;8.30;;;5.68;;
31306;SDS011;17935;51.120;13.132;2023-06-14T03:31:34;6.05;;;5.43;;
31306;SDS011;17935;51.120;13.132;2023-06-14T03:34:00;6.90;;;5.57;;
31306;SDS011;17935;51.120;13.132;2023-06-14T03:36:26;6.78;;;6.05;;
31306;SDS011;17935;51.120;13.132;2023-06-14T03:38:55;8.45;;;5.82;;
31306;SDS011;17935;51.120;13.132;2023-06-14T03:41:22;7.47;;;6.03;;
31306;SDS011;17935;51.120;13.132;2023-06-14T03:43:48;9.30;;;6.20;;
31306;SDS011;17935;51.120;13.132;2023-06-14T03:46:13;7.38;;;6.05;;
31306;SDS011;17935;51.120;13.132;2023-06-14T03:48:39;12.38;;;6.13;;
31306;SDS011;17935;51.120;13.132;2023-06-14T03:51:05;6.43;;;5.28;;
31306;SDS011;17935;51.120;13.132;2023-06-14T03:53:31;5.18;;;4.53;;
31306;SDS011;17935;51.120;13.132;2023-06-14T03:55:57;4.25;;;3.80;;
31306;SDS011;17935;51.120;13.132;2023-06-14T03:58:25;6.07;;;4.40;;
31306;SDS011;17935;51.120;13.132;2023-06-14T04:00:50;4.97;;;3.90;;
31306;SDS011;17935;51.120;13.132;2023-06-14T04:03:16;7.25;;;3.72;;
31306;SDS011;17935;51.120;13.132;2023-06-14T04:05:44;8.60;;;4.10;;
31306;SDS011;17935;51.120;13.132;2023-06-14T04:08:14;5.07;;;3.70;;
31306;SDS011;17935;51.120;13.132;2023-06-14T04:10:40;10.82;;;3.80;;
31306;SDS011;17935;51.120;13.132;2023-06-14T04:13:06;6.50;;;4.00;;
31306;SDS011;17935;51.120;13.132;2023-06-14T04:15:32;3.97;;;3.58;;
31306;SDS011;17935;51.120;13.132;2023-06-14T04:17:59;4.88;;;3.00;;
31306;SDS011;17935;51.120;13.132;2023-06-14T04:20:25;4.13;;;3.67;;
31306;SDS011;17935;51.120;13.132;2023-06-14T04:22:51;9.32;;;3.85;;
31306;SDS011;17935;51.120;13.132;2023-06-14T04:25:17;3.97;;;3.15;;
31306;SDS011;17935;51.120;13.132;2023-06-14T04:27:43;7.25;;;4.13;;
31306;SDS011;17935;51.120;13.132;2023-06-14T04:30:09;3.40;;;3.10;;
31306;SDS011;17935;51.120;13.132;2023-06-14T04:32:35;5.80;;;3.55;;
31306;SDS011;17935;51.120;13.132;2023-06-14T04:35:07;5.28;;;3.28;;
31306;SDS011;17935;51.120;13.132;2023-06-14T04:37:34;6.72;;;3.75;;
31306;SDS011;17935;51.120;13.132;2023-06-14T04:40:00;5.93;;;3.50;;
31306;SDS011;17935;51.120;13.132;2023-06-14T04:42:26;5.45;;;3.20;;
31306;SDS011;17935;51.120;13.132;2023-06-14T04:44:55;10.85;;;3.70;;
31306;SDS011;17935;51.120;13.132;2023-06-14T04:47:21;4.07;;;3.03;;
31306;SDS011;17935;51.120;13.132;2023-06-14T04:49:49;7.82;;;3.75;;
31306;SDS011;17935;51.120;13.132;2023-06-14T04:52:18;7.05;;;3.50;;
31306;SDS011;17935;51.120;13.132;2023-06-14T04:54:46;4.63;;;3.28;;
31306;SDS011;17935;51.120;13.132;2023-06-14T04:57:12;4.82;;;3.42;;
31306;SDS011;17935;51.120;13.132;2023-06-14T04:59:42;4.72;;;3.20;;
31306;SDS011;17935;51.120;13.132;2023-06-14T05:02:09;5.18;;;4.15;;
31306;SDS011;17935;51.120;13.132;2023-06-14T05:04:35;3.88;;;3.17;;
31306;SDS011;17935;51.120;13.132;2023-06-14T05:07:04;3.80;;;3.33;;
31306;SDS011;17935;51.120;13.132;2023-06-14T05:09:31;8.70;;;4.18;;
31306;SDS011;17935;51.120;13.132;2023-06-14T05:11:58;5.28;;;3.60;;
31306;SDS011;17935;51.120;13.132;2023-06-14T05:14:25;6.15;;;3.35;;
31306;SDS011;17935;51.120;13.132;2023-06-14T05:16:51;4.05;;;3.58;;
31306;SDS011;17935;51.120;13.132;2023-06-14T05:19:18;6.35;;;3.60;;
31306;SDS011;17935;51.120;13.132;2023-06-14T05:21:45;7.22;;;3.45;;
31306;SDS011;17935;51.120;13.132;2023-06-14T05:24:12;4.75;;;3.85;;
31306;SDS011;17935;51.120;13.132;2023-06-14T05:26:38;6.03;;;3.72;;
31306;SDS011;17935;51.120;13.132;2023-06-14T05:29:04;4.43;;;4.00;;
31306;SDS011;17935;51.120;13.132;2023-06-14T05:31:30;5.85;;;3.80;;
31306;SDS011;17935;51.120;13.132;2023-06-14T05:33:56;4.80;;;3.40;;
31306;SDS011;17935;51.120;13.132;2023-06-14T05:36:22;4.65;;;3.72;;
31306;SDS011;17935;51.120;13.132;2023-06-14T05:38:48;5.97;;;4.07;;
31306;SDS011;17935;51.120;13.132;2023-06-14T05:41:15;3.90;;;3.50;;
31306;SDS011;17935;51.120;13.132;2023-06-14T05:43:41;5.78;;;3.20;;
31306;SDS011;17935;51.120;13.132;2023-06-14T05:46:07;4.28;;;3.70;;
31306;SDS011;17935;51.120;13.132;2023-06-14T05:48:33;4.60;;;3.67;;
31306;SDS011;17935;51.120;13.132;2023-06-14T05:50:59;8.43;;;3.72;;
31306;SDS011;17935;51.120;13.132;2023-06-14T05:53:25;4.15;;;3.75;;
31306;SDS011;17935;51.120;13.132;2023-06-14T05:55:51;7.28;;;3.22;;
31306;SDS011;17935;51.120;13.132;2023-06-14T05:58:19;5.15;;;3.75;;
31306;SDS011;17935;51.120;13.132;2023-06-14T06:00:45;5.13;;;3.42;;
31306;SDS011;17935;51.120;13.132;2023-06-14T06:03:11;12.70;;;3.72;;
31306;SDS011;17935;51.120;13.132;2023-06-14T06:05:38;4.13;;;3.40;;
31306;SDS011;17935;51.120;13.132;2023-06-14T06:08:04;4.97;;;3.30;;
31306;SDS011;17935;51.120;13.132;2023-06-14T06:10:30;4.70;;;3.40;;
31306;SDS011;17935;51.120;13.132;2023-06-14T06:12:56;3.88;;;3.40;;
31306;SDS011;17935;51.120;13.132;2023-06-14T06:15:22;4.10;;;3.70;;
31306;SDS011;17935;51.120;13.132;2023-06-14T06:17:47;6.03;;;3.97;;
31306;SDS011;17935;51.120;13.132;2023-06-14T06:20:13;3.97;;;3.58;;
31306;SDS011;17935;51.120;13.132;2023-06-14T06:22:39;5.38;;;3.70;;
31306;SDS011;17935;51.120;13.132;2023-06-14T06:25:05;5.00;;;4.05;;
31306;SDS011;17935;51.120;13.132;2023-06-14T06:27:32;6.15;;;4.05;;
31306;SDS011;17935;51.120;13.132;2023-06-14T06:29:58;9.40;;;4.05;;
31306;SDS011;17935;51.120;13.132;2023-06-14T06:32:24;4.88;;;3.75;;
31306;SDS011;17935;51.120;13.132;2023-06-14T06:34:50;7.25;;;3.60;;
31306;SDS011;17935;51.120;13.132;2023-06-14T06:37:16;4.43;;;3.88;;
31306;SDS011;17935;51.120;13.132;2023-06-14T06:39:42;4.13;;;3.72;;
31306;SDS011;17935;51.120;13.132;2023-06-14T06:42:08;4.35;;;3.65;;
31306;SDS011;17935;51.120;13.132;2023-06-14T06:44:35;5.50;;;4.10;;
31306;SDS011;17935;51.120;13.132;2023-06-14T06:47:01;4.00;;;3.53;;
31306;SDS011;17935;51.120;13.132;2023-06-14T06:49:27;6.72;;;3.60;;
31306;SDS011;17935;51.120;13.132;2023-06-14T06:52:00;7.45;;;3.50;;
31306;SDS011;17935;51.120;13.132;2023-06-14T06:54:27;4.00;;;3.60;;
31306;SDS011;17935;51.120;13.132;2023-06-14T06:56:53;5.97;;;3.67;;
31306;SDS011;17935;51.120;13.132;2023-06-14T06:59:19;4.45;;;3.10;;
31306;SDS011;17935;51.120;13.132;2023-06-14T07:01:45;6.38;;;3.35;;
31306;SDS011;17935;51.120;13.132;2023-06-14T07:04:11;4.07;;;3.58;;
31306;SDS011;17935;51.120;13.132;2023-06-14T07:06:37;7.35;;;3.33;;
31306;SDS011;17935;51.120;13.132;2023-06-14T07:09:03;4.93;;;3.30;;
31306;SDS011;17935;51.120;13.132;2023-06-14T07:11:33;6.90;;;2.92;;
31306;SDS011;17935;51.120;13.132;2023-06-14T07:13:59;3.88;;;3.30;;
31306;SDS011;17935;51.120;13.132;2023-06-14T07:16:25;3.80;;;2.75;;
31306;SDS011;17935;51.120;13.132;2023-06-14T07:18:51;6.97;;;3.47;;
31306;SDS011;17935;51.120;13.132;2023-06-14T07:21:17;4.60;;;2.90;;
31306;SDS011;17935;51.120;13.132;2023-06-14T07:23:43;8.27;;;3.15;;
31306;SDS011;17935;51.120;13.132;2023-06-14T07:26:09;5.40;;;3.42;;
31306;SDS011;17935;51.120;13.132;2023-06-14T07:28:35;5.97;;;3.08;;
31306;SDS011;17935;51.120;13.132;2023-06-14T07:31:01;5.10;;;3.22;;
31306;SDS011;17935;51.120;13.132;2023-06-14T07:33:27;8.73;;;3.20;;
31306;SDS011;17935;51.120;13.132;2023-06-14T07:35:53;6.70;;;3.40;;
31306;SDS011;17935;51.120;13.132;2023-06-14T07:38:19;3.10;;;2.80;;
31306;SDS011;17935;51.120;13.132;2023-06-14T07:40:45;4.10;;;3.30;;
31306;SDS011;17935;51.120;13.132;2023-06-14T07:43:11;4.03;;;2.80;;
31306;SDS011;17935;51.120;13.132;2023-06-14T07:45:37;3.97;;;2.70;;
31306;SDS011;17935;51.120;13.132;2023-06-14T07:48:03;5.50;;;3.13;;
31306;SDS011;17935;51.120;13.132;2023-06-14T07:50:29;3.78;;;2.88;;
31306;SDS011;17935;51.120;13.132;2023-06-14T07:52:56;8.45;;;3.22;;
31306;SDS011;17935;51.120;13.132;2023-06-14T07:55:21;8.70;;;3.20;;
31306;SDS011;17935;51.120;13.132;2023-06-14T07:57:47;3.35;;;2.92;;
31306;SDS011;17935;51.120;13.132;2023-06-14T08:00:14;3.22;;;2.90;;
31306;SDS011;17935;51.120;13.132;2023-06-14T08:02:44;9.02;;;2.85;;
31306;SDS011;17935;51.120;13.132;2023-06-14T08:05:10;5.75;;;3.30;;
31306;SDS011;17935;51.120;13.132;2023-06-14T08:07:37;6.80;;;3.05;;
31306;SDS011;17935;51.120;13.132;2023-06-14T08:10:04;5.50;;;2.92;;
31306;SDS011;17935;51.120;13.132;2023-06-14T08:12:30;6.35;;;2.78;;
31306;SDS011;17935;51.120;13.132;2023-06-14T08:14:56;4.40;;;2.65;;
31306;SDS011;17935;51.120;13.132;2023-06-14T08:17:22;3.25;;;2.92;;
31306;SDS011;17935;51.120;13.132;2023-06-14T08:19:48;6.30;;;3.38;;
31306;SDS011;17935;51.120;13.132;2023-06-14T08:22:14;5.10;;;3.65;;
31306;SDS011;17935;51.120;13.132;2023-06-14T08:24:41;6.47;;;3.15;;
31306;SDS011;17935;51.120;13.132;2023-06-14T08:27:07;3.42;;;2.65;;
31306;SDS011;17935;51.120;13.132;2023-06-14T08:29:33;4.03;;;3.00;;
31306;SDS011;17935;51.120;13.132;2023-06-14T08:31:59;3.45;;;2.20;;
31306;SDS011;17935;51.120;13.132;2023-06-14T08:34:26;9.98;;;2.95;;
31306;SDS011;17935;51.120;13.132;2023-06-14T08:36:52;3.20;;;2.40;;
31306;SDS011;17935;51.120;13.132;2023-06-14T08:39:18;3.65;;;2.75;;
31306;SDS011;17935;51.120;13.132;2023-06-14T08:41:46;3.10;;;2.42;;
31306;SDS011;17935;51.120;13.132;2023-06-14T08:44:13;7.60;;;2.58;;
31306;SDS011;17935;51.120;13.132;2023-06-14T08:46:40;5.78;;;2.40;;
31306;SDS011;17935;51.120;13.132;2023-06-14T08:49:07;8.63;;;2.90;;
31306;SDS011;17935;51.120;13.132;2023-06-14T08:51:34;5.72;;;2.45;;
31306;SDS011;17935;51.120;13.132;2023-06-14T08:54:01;5.05;;;2.60;;
31306;SDS011;17935;51.120;13.132;2023-06-14T08:56:29;6.50;;;2.28;;
31306;SDS011;17935;51.120;13.132;2023-06-14T08:58:55;5.32;;;2.95;;
31306;SDS011;17935;51.120;13.132;2023-06-14T09:01:21;4.38;;;2.50;;
31306;SDS011;17935;51.120;13.132;2023-06-14T09:03:48;4.00;;;2.85;;
31306;SDS011;17935;51.120;13.132;2023-06-14T09:06:14;6.03;;;2.78;;
31306;SDS011;17935;51.120;13.132;2023-06-14T09:08:41;3.30;;;2.42;;
31306;SDS011;17935;51.120;13.132;2023-06-14T09:11:08;5.07;;;2.50;;
31306;SDS011;17935;51.120;13.132;2023-06-14T09:13:36;4.60;;;2.53;;
31306;SDS011;17935;51.120;13.132;2023-06-14T09:16:02;4.53;;;2.70;;
31306;SDS011;17935;51.120;13.132;2023-06-14T09:18:39;6.30;;;2.17;;
31306;SDS011;17935;51.120;13.132;2023-06-14T09:21:06;3.42;;;2.10;;
31306;SDS011;17935;51.120;13.132;2023-06-14T09:23:36;2.72;;;2.15;;
31306;SDS011;17935;51.120;13.132;2023-06-14T09:26:06;2.70;;;1.77;;
31306;SDS011;17935;51.120;13.132;2023-06-14T09:28:33;4.93;;;2.28;;
31306;SDS011;17935;51.120;13.132;2023-06-14T09:31:00;3.40;;;2.30;;
31306;SDS011;17935;51.120;13.132;2023-06-14T09:33:26;7.85;;;2.30;;
31306;SDS011;17935;51.120;13.132;2023-06-14T09:35:52;4.60;;;2.00;;
31306;SDS011;17935;51.120;13.132;2023-06-14T09:38:19;4.28;;;1.92;;
31306;SDS011;17935;51.120;13.132;2023-06-14T09:40:46;6.55;;;2.03;;
31306;SDS011;17935;51.120;13.132;2023-06-14T09:43:12;5.63;;;1.95;;
31306;SDS011;17935;51.120;13.132;2023-06-14T09:45:38;11.75;;;2.40;;
31306;SDS011;17935;51.120;13.132;2023-06-14T09:48:05;3.45;;;2.10;;
31306;SDS011;17935;51.120;13.132;2023-06-14T09:50:33;3.83;;;2.10;;
31306;SDS011;17935;51.120;13.132;2023-06-14T09:53:02;2.22;;;1.88;;
31306;SDS011;17935;51.120;13.132;2023-06-14T09:55:28;4.78;;;1.98;;
31306;SDS011;17935;51.120;13.132;2023-06-14T09:57:56;6.70;;;2.92;;
31306;SDS011;17935;51.120;13.132;2023-06-14T10:00:22;2.95;;;2.38;;
31306;SDS011;17935;51.120;13.132;2023-06-14T10:02:49;2.33;;;2.10;;
31306;SDS011;17935;51.120;13.132;2023-06-14T10:05:20;4.68;;;3.03;;
31306;SDS011;17935;51.120;13.132;2023-06-14T10:10:13;3.75;;;2.53;;
31306;SDS011;17935;51.120;13.132;2023-06-14T10:12:40;3.47;;;2.85;;
31306;SDS011;17935;51.120;13.132;2023-06-14T10:15:07;2.88;;;2.63;;
31306;SDS011;17935;51.120;13.132;2023-06-14T10:22:33;5.90;;;3.08;;
31306;SDS011;17935;51.120;13.132;2023-06-14T10:25:01;8.23;;;2.97;;
31306;SDS011;17935;51.120;13.132;2023-06-14T10:27:27;7.72;;;3.03;;
31306;SDS011;17935;51.120;13.132;2023-06-14T10:32:22;4.72;;;3.25;;
31306;SDS011;17935;51.120;13.132;2023-06-14T10:34:57;3.97;;;3.17;;
31306;SDS011;17935;51.120;13.132;2023-06-14T10:37:23;4.65;;;3.33;;
31306;SDS011;17935;51.120;13.132;2023-06-14T10:39:49;5.45;;;3.70;;
31306;SDS011;17935;51.120;13.132;2023-06-14T10:42:16;11.38;;;4.50;;
31306;SDS011;17935;51.120;13.132;2023-06-14T10:44:51;5.30;;;3.97;;
31306;SDS011;17935;51.120;13.132;2023-06-14T10:47:25;5.45;;;4.70;;
31306;SDS011;17935;51.120;13.132;2023-06-14T10:49:52;5.53;;;4.15;;
31306;SDS011;17935;51.120;13.132;2023-06-14T10:52:20;4.75;;;3.85;;
31306;SDS011;17935;51.120;13.132;2023-06-14T10:54:56;3.95;;;3.55;;
31306;SDS011;17935;51.120;13.132;2023-06-14T10:57:24;6.30;;;3.80;;
31306;SDS011;17935;51.120;13.132;2023-06-14T10:59:50;4.38;;;3.25;;
31306;SDS011;17935;51.120;13.132;2023-06-14T11:04:47;6.60;;;3.35;;
31306;SDS011;17935;51.120;13.132;2023-06-14T11:12:26;3.85;;;3.25;;
31306;SDS011;17935;51.120;13.132;2023-06-14T11:14:53;4.03;;;3.60;;
31306;SDS011;17935;51.120;13.132;2023-06-14T11:17:19;6.95;;;4.32;;
31306;SDS011;17935;51.120;13.132;2023-06-14T11:19:45;5.47;;;3.75;;
31306;SDS011;17935;51.120;13.132;2023-06-14T11:22:11;5.38;;;3.53;;
31306;SDS011;17935;51.120;13.132;2023-06-14T11:24:39;6.00;;;4.32;;
31306;SDS011;17935;51.120;13.132;2023-06-14T11:27:05;10.68;;;4.75;;
31306;SDS011;17935;51.120;13.132;2023-06-14T11:29:31;5.68;;;4.32;;
31306;SDS011;17935;51.120;13.132;2023-06-14T11:31:57;7.72;;;4.63;;
31306;SDS011;17935;51.120;13.132;2023-06-14T11:34:24;5.05;;;4.47;;
31306;SDS011;17935;51.120;13.132;2023-06-14T11:36:50;6.05;;;3.92;;
31306;SDS011;17935;51.120;13.132;2023-06-14T11:39:16;4.88;;;4.38;;
31306;SDS011;17935;51.120;13.132;2023-06-14T11:41:43;5.22;;;4.72;;
31306;SDS011;17935;51.120;13.132;2023-06-14T11:44:09;6.72;;;4.22;;
31306;SDS011;17935;51.120;13.132;2023-06-14T11:46:35;5.38;;;4.20;;
31306;SDS011;17935;51.120;13.132;2023-06-14T11:49:01;6.70;;;4.55;;
31306;SDS011;17935;51.120;13.132;2023-06-14T11:51:30;12.43;;;4.18;;
31306;SDS011;17935;51.120;13.132;2023-06-14T11:53:56;4.68;;;4.05;;
31306;SDS011;17935;51.120;13.132;2023-06-14T11:56:23;5.55;;;3.80;;
31306;SDS011;17935;51.120;13.132;2023-06-14T11:58:50;5.57;;;3.80;;
31306;SDS011;17935;51.120;13.132;2023-06-14T12:01:16;3.83;;;3.03;;
31306;SDS011;17935;51.120;13.132;2023-06-14T12:03:49;3.90;;;3.10;;
31306;SDS011;17935;51.120;13.132;2023-06-14T12:06:15;5.13;;;2.90;;
31306;SDS011;17935;51.120;13.132;2023-06-14T12:08:43;4.05;;;2.90;;
31306;SDS011;17935;51.120;13.132;2023-06-14T12:11:11;5.05;;;3.20;;
31306;SDS011;17935;51.120;13.132;2023-06-14T12:13:38;3.40;;;2.88;;
31306;SDS011;17935;51.120;13.132;2023-06-14T12:16:06;4.47;;;2.58;;
31306;SDS011;17935;51.120;13.132;2023-06-14T12:18:33;7.32;;;2.95;;
31306;SDS011;17935;51.120;13.132;2023-06-14T12:20:59;3.05;;;2.78;;
31306;SDS011;17935;51.120;13.132;2023-06-14T12:23:48;5.53;;;3.22;;
31306;SDS011;17935;51.120;13.132;2023-06-14T12:26:16;6.20;;;3.05;;
31306;SDS011;17935;51.120;13.132;2023-06-14T12:28:43;3.55;;;2.88;;
31306;SDS011;17935;51.120;13.132;2023-06-14T12:31:10;8.20;;;3.22;;
31306;SDS011;17935;51.120;13.132;2023-06-14T12:33:37;4.55;;;2.78;;
31306;SDS011;17935;51.120;13.132;2023-06-14T12:36:03;9.82;;;3.15;;
31306;SDS011;17935;51.120;13.132;2023-06-14T12:38:30;3.88;;;3.08;;
31306;SDS011;17935;51.120;13.132;2023-06-14T12:40:57;4.80;;;3.40;;
31306;SDS011;17935;51.120;13.132;2023-06-14T12:43:23;3.85;;;2.67;;
31306;SDS011;17935;51.120;13.132;2023-06-14T12:45:49;5.28;;;3.30;;
31306;SDS011;17935;51.120;13.132;2023-06-14T12:48:15;5.03;;;2.92;;
31306;SDS011;17935;51.120;13.132;2023-06-14T12:50:41;3.55;;;3.13;;
31306;SDS011;17935;51.120;13.132;2023-06-14T12:53:07;3.97;;;2.70;;
31306;SDS011;17935;51.120;13.132;2023-06-14T12:55:33;5.97;;;3.22;;
31306;SDS011;17935;51.120;13.132;2023-06-14T12:58:00;4.10;;;2.75;;
31306;SDS011;17935;51.120;13.132;2023-06-14T13:00:26;5.82;;;2.90;;
31306;SDS011;17935;51.120;13.132;2023-06-14T13:02:52;3.85;;;3.22;;
31306;SDS011;17935;51.120;13.132;2023-06-14T13:05:18;7.13;;;2.65;;
31306;SDS011;17935;51.120;13.132;2023-06-14T13:07:44;2.90;;;2.50;;
31306;SDS011;17935;51.120;13.132;2023-06-14T13:10:10;3.35;;;2.80;;
31306;SDS011;17935;51.120;13.132;2023-06-14T13:12:36;4.35;;;2.75;;
31306;SDS011;17935;51.120;13.132;2023-06-14T13:15:02;3.15;;;2.85;;
31306;SDS011;17935;51.120;13.132;2023-06-14T13:17:28;5.97;;;3.97;;
31306;SDS011;17935;51.120;13.132;2023-06-14T13:19:54;5.38;;;3.65;;
31306;SDS011;17935;51.120;13.132;2023-06-14T13:22:20;4.18;;;3.72;;
31306;SDS011;17935;51.120;13.132;2023-06-14T13:24:46;4.70;;;3.90;;
31306;SDS011;17935;51.120;13.132;2023-06-14T13:27:13;5.65;;;4.13;;
31306;SDS011;17935;51.120;13.132;2023-06-14T13:29:39;8.32;;;3.80;;
31306;SDS011;17935;51.120;13.132;2023-06-14T13:32:05;6.28;;;3.97;;
31306;SDS011;17935;51.120;13.132;2023-06-14T13:34:31;6.78;;;4.20;;
31306;SDS011;17935;51.120;13.132;2023-06-14T13:36:57;4.78;;;3.40;;
31306;SDS011;17935;51.120;13.132;2023-06-14T13:39:24;9.13;;;4.22;;
31306;SDS011;17935;51.120;13.132;2023-06-14T13:41:50;4.80;;;3.80;;
31306;SDS011;17935;51.120;13.132;2023-06-14T13:44:16;9.55;;;4.05;;
31306;SDS011;17935;51.120;13.132;2023-06-14T13:46:44;5.15;;;4.10;;
31306;SDS011;17935;51.120;13.132;2023-06-14T13:49:10;4.40;;;3.65;;
31306;SDS011;17935;51.120;13.132;2023-06-14T13:51:37;5.18;;;3.33;;
31306;SDS011;17935;51.120;13.132;2023-06-14T13:54:03;5.25;;;3.20;;
31306;SDS011;17935;51.120;13.132;2023-06-14T13:56:29;4.85;;;3.13;;
31306;SDS011;17935;51.120;13.132;2023-06-14T13:58:55;4.90;;;3.80;;
31306;SDS011;17935;51.120;13.132;2023-06-14T14:01:21;7.80;;;3.83;;
31306;SDS011;17935;51.120;13.132;2023-06-14T14:03:48;6.43;;;3.30;;
31306;SDS011;17935;51.120;13.132;2023-06-14T14:06:14;5.53;;;3.60;;
31306;SDS011;17935;51.120;13.132;2023-06-14T14:08:41;4.82;;;3.00;;
31306;SDS011;17935;51.120;13.132;2023-06-14T14:11:07;6.20;;;2.80;;
31306;SDS011;17935;51.120;13.132;2023-06-14T14:13:33;4.43;;;3.00;;
31306;SDS011;17935;51.120;13.132;2023-06-14T14:16:01;3.88;;;3.30;;
31306;SDS011;17935;51.120;13.132;2023-06-14T14:18:27;2.90;;;2.65;;
31306;SDS011;17935;51.120;13.132;2023-06-14T14:20:53;3.22;;;2.50;;
31306;SDS011;17935;51.120;13.132;2023-06-14T14:23:19;4.05;;;2.30;;
31306;SDS011;17935;51.120;13.132;2023-06-14T14:25:45;4.50;;;3.00;;
31306;SDS011;17935;51.120;13.132;2023-06-14T14:28:11;2.70;;;2.50;;
31306;SDS011;17935;51.120;13.132;2023-06-14T14:30:40;5.38;;;2.65;;
31306;SDS011;17935;51.120;13.132;2023-06-14T14:33:06;6.13;;;2.78;;
31306;SDS011;17935;51.120;13.132;2023-06-14T14:35:32;5.18;;;2.90;;
31306;SDS011;17935;51.120;13.132;2023-06-14T14:37:58;7.15;;;3.03;;
31306;SDS011;17935;51.120;13.132;2023-06-14T14:40:24;3.30;;;3.00;;
31306;SDS011;17935;51.120;13.132;2023-06-14T14:42:51;5.13;;;3.25;;
31306;SDS011;17935;51.120;13.132;2023-06-14T14:45:17;5.32;;;3.47;;
31306;SDS011;17935;51.120;13.132;2023-06-14T14:47:43;4.65;;;3.00;;
31306;SDS011;17935;51.120;13.132;2023-06-14T14:50:09;3.70;;;2.45;;
31306;SDS011;17935;51.120;13.132;2023-06-14T14:52:35;2.15;;;1.92;;